Terminal Aerodrome Forecast
Issued by NWS Upton, NY

Home | Current Version | Previous Version | Text Only | Print | Product List | Glossary On
Versions: 1 2 3 4 5 6 7 8 9 10 11 12 13 14 15 16 17 18 19 20 21 22 23 24 25 26 27 28 29 30 31 32 33 34 35 36 37 38 39
000
FTUS41 KOKX 290557
TAFBDR
TAF
KBDR 290557Z 2906/3006 VRB04KT P6SM SCT200 BKN250
     FM290900 VRB04KT 6SM SHRA BR VCTS SCT015 BKN050CB
      TEMPO 2909/2913 4SM BR BKN015
     FM291300 VRB05KT 6SM BR FEW005 BKN025
      TEMPO 2913/2915 4SM BR BKN015
     FM291500 25007KT P6SM BKN150
     FM291700 26011G18KT P6SM BKN200
     FM292200 30014G25KT P6SM BKN250
     FM300000 VRB05KT P6SM BKN200=

USA.gov is the U.S. government's official web portal to all federal, state and local government web resources and services.